sensor_id;sensor_type;location;lat;lon;timestamp;P1;durP1;ratioP1;P2;durP2;ratioP2
15748;SDS011;7976;52.526;13.326;2023-11-19T19:48:01;21.23;;;5.13;;
15748;SDS011;7976;52.526;13.326;2023-11-19T19:50:28;27.20;;;6.40;;
15748;SDS011;7976;52.526;13.326;2023-11-19T19:52:56;24.20;;;5.85;;
15748;SDS011;7976;52.526;13.326;2023-11-19T19:55:23;26.48;;;5.97;;
15748;SDS011;7976;52.526;13.326;2023-11-19T19:57:50;20.20;;;5.65;;
15748;SDS011;7976;52.526;13.326;2023-11-19T20:00:17;19.40;;;5.30;;
15748;SDS011;7976;52.526;13.326;2023-11-19T20:02:44;19.20;;;5.70;;
15748;SDS011;7976;52.526;13.326;2023-11-19T20:05:12;15.93;;;5.07;;
15748;SDS011;7976;52.526;13.326;2023-11-19T20:07:40;19.58;;;4.47;;
15748;SDS011;7976;52.526;13.326;2023-11-19T20:10:09;12.98;;;4.68;;
15748;SDS011;7976;52.526;13.326;2023-11-19T20:12:37;25.40;;;5.75;;
15748;SDS011;7976;52.526;13.326;2023-11-19T20:15:05;22.60;;;5.32;;
15748;SDS011;7976;52.526;13.326;2023-11-19T20:17:34;22.08;;;4.75;;
15748;SDS011;7976;52.526;13.326;2023-11-19T20:20:02;19.08;;;4.88;;
15748;SDS011;7976;52.526;13.326;2023-11-19T20:22:33;16.45;;;4.00;;
15748;SDS011;7976;52.526;13.326;2023-11-19T20:25:00;17.58;;;4.68;;
15748;SDS011;7976;52.526;13.326;2023-11-19T20:27:27;19.85;;;4.30;;
15748;SDS011;7976;52.526;13.326;2023-11-19T20:29:54;19.00;;;4.15;;
15748;SDS011;7976;52.526;13.326;2023-11-19T20:32:21;15.07;;;4.20;;
15748;SDS011;7976;52.526;13.326;2023-11-19T20:34:48;16.60;;;4.50;;
15748;SDS011;7976;52.526;13.326;2023-11-19T20:37:16;15.95;;;4.10;;
15748;SDS011;7976;52.526;13.326;2023-11-19T20:39:45;19.55;;;4.32;;
15748;SDS011;7976;52.526;13.326;2023-11-19T20:42:12;16.67;;;3.65;;
15748;SDS011;7976;52.526;13.326;2023-11-19T20:44:39;15.32;;;3.92;;
15748;SDS011;7976;52.526;13.326;2023-11-19T20:47:08;14.80;;;3.90;;
15748;SDS011;7976;52.526;13.326;2023-11-19T20:49:35;16.88;;;4.03;;
15748;SDS011;7976;52.526;13.326;2023-11-19T20:52:02;18.08;;;3.40;;
15748;SDS011;7976;52.526;13.326;2023-11-19T20:54:29;14.65;;;3.88;;
15748;SDS011;7976;52.526;13.326;2023-11-19T20:56:57;14.73;;;3.67;;
15748;SDS011;7976;52.526;13.326;2023-11-19T20:59:25;17.60;;;3.55;;
15748;SDS011;7976;52.526;13.326;2023-11-19T21:01:52;14.13;;;3.90;;
15748;SDS011;7976;52.526;13.326;2023-11-19T21:04:19;18.38;;;4.40;;
15748;SDS011;7976;52.526;13.326;2023-11-19T21:06:45;19.05;;;4.00;;
15748;SDS011;7976;52.526;13.326;2023-11-19T21:09:12;18.40;;;4.55;;
15748;SDS011;7976;52.526;13.326;2023-11-19T21:11:40;26.80;;;5.40;;
15748;SDS011;7976;52.526;13.326;2023-11-19T21:14:09;21.27;;;3.83;;
15748;SDS011;7976;52.526;13.326;2023-11-19T21:16:36;20.38;;;4.90;;
15748;SDS011;7976;52.526;13.326;2023-11-19T21:19:03;14.57;;;4.15;;
15748;SDS011;7976;52.526;13.326;2023-11-19T21:21:30;15.98;;;3.60;;
15748;SDS011;7976;52.526;13.326;2023-11-19T21:23:57;15.75;;;3.17;;
15748;SDS011;7976;52.526;13.326;2023-11-19T21:26:25;22.08;;;3.42;;
15748;SDS011;7976;52.526;13.326;2023-11-19T21:28:51;24.23;;;4.20;;
15748;SDS011;7976;52.526;13.326;2023-11-19T21:31:20;18.00;;;3.30;;
15748;SDS011;7976;52.526;13.326;2023-11-19T21:33:47;17.70;;;4.22;;
15748;SDS011;7976;52.526;13.326;2023-11-19T21:36:14;15.80;;;3.58;;
15748;SDS011;7976;52.526;13.326;2023-11-19T21:38:41;17.80;;;3.80;;
15748;SDS011;7976;52.526;13.326;2023-11-19T21:41:09;15.95;;;3.78;;
15748;SDS011;7976;52.526;13.326;2023-11-19T21:43:35;14.50;;;3.90;;
15748;SDS011;7976;52.526;13.326;2023-11-19T21:46:03;13.82;;;3.10;;
15748;SDS011;7976;52.526;13.326;2023-11-19T21:48:31;13.88;;;2.97;;
15748;SDS011;7976;52.526;13.326;2023-11-19T21:51:02;18.42;;;3.58;;
15748;SDS011;7976;52.526;13.326;2023-11-19T21:53:30;21.40;;;3.80;;
15748;SDS011;7976;52.526;13.326;2023-11-19T21:55:57;15.35;;;3.97;;
15748;SDS011;7976;52.526;13.326;2023-11-19T21:58:24;10.88;;;3.28;;
15748;SDS011;7976;52.526;13.326;2023-11-19T22:00:51;15.15;;;3.70;;
15748;SDS011;7976;52.526;13.326;2023-11-19T22:03:17;13.15;;;3.45;;
15748;SDS011;7976;52.526;13.326;2023-11-19T22:05:46;17.52;;;3.67;;
15748;SDS011;7976;52.526;13.326;2023-11-19T22:08:13;16.05;;;3.65;;
15748;SDS011;7976;52.526;13.326;2023-11-19T22:10:40;21.75;;;3.67;;
15748;SDS011;7976;52.526;13.326;2023-11-19T22:13:07;20.92;;;3.50;;
15748;SDS011;7976;52.526;13.326;2023-11-19T22:15:34;12.75;;;3.78;;
15748;SDS011;7976;52.526;13.326;2023-11-19T22:18:01;19.27;;;3.72;;
15748;SDS011;7976;52.526;13.326;2023-11-19T22:20:28;15.00;;;3.60;;
15748;SDS011;7976;52.526;13.326;2023-11-19T22:22:56;18.00;;;3.40;;
15748;SDS011;7976;52.526;13.326;2023-11-19T22:25:23;15.60;;;3.20;;
15748;SDS011;7976;52.526;13.326;2023-11-19T22:27:51;15.02;;;3.47;;
15748;SDS011;7976;52.526;13.326;2023-11-19T22:30:19;15.13;;;3.13;;
15748;SDS011;7976;52.526;13.326;2023-11-19T22:32:46;13.10;;;3.42;;
15748;SDS011;7976;52.526;13.326;2023-11-19T22:35:13;12.60;;;3.40;;
15748;SDS011;7976;52.526;13.326;2023-11-19T22:37:40;13.85;;;3.35;;
15748;SDS011;7976;52.526;13.326;2023-11-19T22:40:09;18.10;;;4.05;;
15748;SDS011;7976;52.526;13.326;2023-11-19T22:42:37;13.32;;;3.65;;
15748;SDS011;7976;52.526;13.326;2023-11-19T22:45:05;13.43;;;3.53;;
15748;SDS011;7976;52.526;13.326;2023-11-19T22:47:34;14.73;;;3.88;;
15748;SDS011;7976;52.526;13.326;2023-11-19T22:50:01;15.10;;;3.47;;
15748;SDS011;7976;52.526;13.326;2023-11-19T22:52:28;14.02;;;3.55;;
15748;SDS011;7976;52.526;13.326;2023-11-19T22:54:55;14.90;;;4.18;;
15748;SDS011;7976;52.526;13.326;2023-11-19T22:57:24;16.55;;;3.60;;
15748;SDS011;7976;52.526;13.326;2023-11-19T22:59:51;15.90;;;3.85;;
15748;SDS011;7976;52.526;13.326;2023-11-19T23:02:18;16.08;;;3.88;;
15748;SDS011;7976;52.526;13.326;2023-11-19T23:04:45;13.10;;;3.45;;
15748;SDS011;7976;52.526;13.326;2023-11-19T23:07:12;19.13;;;3.65;;
15748;SDS011;7976;52.526;13.326;2023-11-19T23:09:39;16.33;;;3.70;;
15748;SDS011;7976;52.526;13.326;2023-11-19T23:12:06;17.48;;;3.90;;
15748;SDS011;7976;52.526;13.326;2023-11-19T23:14:37;12.73;;;3.90;;
15748;SDS011;7976;52.526;13.326;2023-11-19T23:17:04;13.60;;;3.75;;
15748;SDS011;7976;52.526;13.326;2023-11-19T23:19:32;14.05;;;3.50;;
15748;SDS011;7976;52.526;13.326;2023-11-19T23:22:00;19.08;;;3.80;;
15748;SDS011;7976;52.526;13.326;2023-11-19T23:24:27;19.15;;;3.83;;
15748;SDS011;7976;52.526;13.326;2023-11-19T23:26:54;14.20;;;2.92;;
15748;SDS011;7976;52.526;13.326;2023-11-19T23:29:24;15.05;;;3.35;;
15748;SDS011;7976;52.526;13.326;2023-11-19T23:31:52;14.80;;;3.50;;
15748;SDS011;7976;52.526;13.326;2023-11-19T23:34:19;15.88;;;3.47;;
15748;SDS011;7976;52.526;13.326;2023-11-19T23:36:47;15.05;;;3.47;;
15748;SDS011;7976;52.526;13.326;2023-11-19T23:39:14;15.32;;;3.67;;
15748;SDS011;7976;52.526;13.326;2023-11-19T23:41:41;13.48;;;3.35;;
15748;SDS011;7976;52.526;13.326;2023-11-19T23:44:08;12.38;;;3.53;;
15748;SDS011;7976;52.526;13.326;2023-11-19T23:46:35;13.60;;;3.80;;
15748;SDS011;7976;52.526;13.326;2023-11-19T23:49:04;14.70;;;3.22;;
15748;SDS011;7976;52.526;13.326;2023-11-19T23:51:31;13.05;;;3.40;;
15748;SDS011;7976;52.526;13.326;2023-11-19T23:53:58;12.50;;;3.22;;
15748;SDS011;7976;52.526;13.326;2023-11-19T23:56:26;13.40;;;3.42;;
15748;SDS011;7976;52.526;13.326;2023-11-19T23:58:53;11.95;;;3.38;;
